Forside
METAR-TAF:

METAR-TAF

Lufthavne :

Silver Bay Municipal Airport

Silver Bay, Minnesota, USA

Breddekreds: 47-12N, længdekreds: 091-24W, højde: 331 m

Aktuelle vejr

Denne rapport blev lavet for 28 minutter siden, kl. 19:55 UTC
Vind 7 kt fra syd
Temperatur 6°C
Fugtighed 39%
Tryk 1009 hPa
Sigt: 16.1 km
skyfri

METAR: KBFW 221955Z AUTO 18007KT 10SM CLR 06/M07 A2980 RMK AO2

Tid: 14:23 (20:23 UTC)


TAF: fraværende

Vejrobservationer og prognoser fra mere end 4000 lufthavne (METAR og TAF).

De gule og røde prikker repræsenterer de meteorologiske stationer.

Flyt musen over at se navnet på stationen.

Så klik over at se vejr observationer og prognoser.

At skifte det kort: Klik på de grønne knapper med et sort kors for at zoome ind; på den grønne knap med en bindestreg for at zoome ud; eller på de grønne pile for tilstødende kort.


METAR-TAF: